Time;durP1;ratioP1;P1;durP2;ratioP2;P2;SDS_P1;SDS_P2;PMS_P1;PMS_P2;Temp;Humidity;BMP_temperature;BMP_pressure;BME280_temperature;BME280_humidity;BME280_pressure;Samples;Min_cycle;Max_cycle;Signal;HPM_P1;HPM_P2
2021/09/14 00:01:30;;;;;;;36.75;30.08;;;16.30;99.90;;;;;;4999086;28;20514;-78
2021/09/14 00:03:56;;;;;;;36.42;29.77;;;16.30;99.90;;;;;;5016055;28;20030;-78
2021/09/14 00:06:21;;;;;;;37.17;30.75;;;16.20;99.90;;;;;;5013949;28;20034;-78
2021/09/14 00:08:47;;;;;;;34.40;30.10;;;16.20;99.90;;;;;;5014667;28;20112;-78
2021/09/14 00:11:13;;;;;;;37.70;30.73;;;16.20;99.90;;;;;;5014295;28;20025;-78
2021/09/14 00:13:38;;;;;;;40.10;31.42;;;16.20;99.90;;;;;;5014769;28;20442;-78
2021/09/14 00:16:04;;;;;;;35.92;30.58;;;16.20;99.90;;;;;;5014309;28;20124;-78
2021/09/14 00:18:30;;;;;;;36.17;31.17;;;16.20;99.90;;;;;;5015783;28;20022;-78
2021/09/14 00:20:55;;;;;;;38.47;30.90;;;16.10;99.90;;;;;;5014471;28;20029;-78
2021/09/14 00:23:21;;;;;;;41.08;32.30;;;16.10;99.90;;;;;;5014424;28;20470;-78
2021/09/14 00:25:46;;;;;;;39.35;32.58;;;16.10;99.90;;;;;;5014256;28;20030;-78
2021/09/14 00:28:12;;;;;;;41.28;33.22;;;16.10;99.90;;;;;;5015946;28;20065;-78
2021/09/14 00:30:38;;;;;;;43.97;32.58;;;16.10;99.90;;;;;;5014248;28;20022;-78
2021/09/14 00:33:04;;;;;;;47.08;32.63;;;16.00;99.90;;;;;;5015699;28;20129;-78
2021/09/14 00:35:29;;;;;;;40.78;33.60;;;16.10;99.90;;;;;;5013950;28;20022;-78
2021/09/14 00:37:55;;;;;;;41.80;33.00;;;16.00;99.90;;;;;;5014726;28;20092;-79
2021/09/14 00:40:20;;;;;;;37.38;32.92;;;16.00;99.90;;;;;;5014493;28;20049;-79
2021/09/14 00:42:46;;;;;;;43.60;33.80;;;16.00;99.90;;;;;;5013867;28;20438;-78
2021/09/14 00:45:12;;;;;;;39.05;32.70;;;16.00;99.90;;;;;;5015378;28;20033;-78
2021/09/14 00:47:37;;;;;;;45.72;33.92;;;16.00;99.90;;;;;;5014289;28;20022;-79
2021/09/14 00:50:05;;;;;;;42.45;35.28;;;16.00;99.90;;;;;;5014434;28;20061;-78
2021/09/14 00:52:34;;;;;;;43.92;34.65;;;16.00;99.90;;;;;;5015185;28;20026;-79
2021/09/14 00:54:59;;;;;;;45.47;35.22;;;16.00;99.90;;;;;;5015354;28;20453;-78
2021/09/14 00:57:25;;;;;;;44.13;36.47;;;16.10;99.90;;;;;;5014572;28;20018;-79
2021/09/14 00:59:51;;;;;;;42.58;34.88;;;16.10;99.90;;;;;;5015230;28;20026;-79
2021/09/14 01:02:17;;;;;;;49.83;36.40;;;16.00;99.90;;;;;;5014539;28;20041;-78
2021/09/14 01:04:42;;;;;;;49.28;39.38;;;16.10;99.90;;;;;;5015285;28;20025;-79
2021/09/14 01:07:08;;;;;;;51.55;40.40;;;16.30;99.90;;;;;;5015565;28;20052;-79
2021/09/14 01:09:36;;;;;;;52.30;41.53;;;16.40;99.90;;;;;;5016650;28;20026;-79
2021/09/14 01:12:02;;;;;;;55.25;41.95;;;16.40;99.90;;;;;;5015397;28;20022;-79
2021/09/14 01:14:28;;;;;;;57.00;42.53;;;16.30;99.90;;;;;;5015269;28;20022;-79
2021/09/14 01:16:54;;;;;;;60.65;44.35;;;16.40;99.90;;;;;;5014890;28;20030;-79
2021/09/14 01:19:19;;;;;;;57.88;44.65;;;16.30;99.90;;;;;;5015372;28;20026;-79
2021/09/14 01:21:45;;;;;;;55.63;43.90;;;16.30;99.90;;;;;;5016621;28;20088;-79
2021/09/14 01:24:12;;;;;;;55.47;43.55;;;16.20;99.90;;;;;;5016307;28;20116;-79
2021/09/14 01:26:38;;;;;;;62.38;46.28;;;16.30;99.90;;;;;;5015909;28;20080;-79
2021/09/14 01:29:09;;;;;;;51.35;41.30;;;16.20;99.90;;;;;;5016678;28;20030;-79
2021/09/14 01:31:35;;;;;;;48.60;39.25;;;15.90;99.90;;;;;;5014893;28;20124;-79
2021/09/14 01:34:02;;;;;;;47.55;37.90;;;15.70;99.90;;;;;;5014892;28;20022;-79
2021/09/14 01:36:27;;;;;;;48.72;37.55;;;15.60;99.90;;;;;;5014930;28;20058;-79
2021/09/14 01:38:53;;;;;;;42.45;35.20;;;15.50;99.90;;;;;;5016242;28;20053;-78
2021/09/14 01:41:18;;;;;;;41.65;36.05;;;15.40;99.90;;;;;;5014984;28;20034;-79
2021/09/14 01:43:45;;;;;;;43.30;35.80;;;15.40;99.90;;;;;;5016408;28;20449;-79
2021/09/14 01:46:10;;;;;;;42.63;34.85;;;15.30;99.90;;;;;;5015280;28;20044;-79
2021/09/14 01:48:36;;;;;;;44.63;35.90;;;15.40;99.90;;;;;;5014975;28;20030;-79
2021/09/14 01:51:03;;;;;;;46.78;36.08;;;15.30;99.90;;;;;;5015877;28;20082;-79
2021/09/14 01:53:28;;;;;;;42.30;34.63;;;15.30;99.90;;;;;;5014793;28;20053;-79
2021/09/14 01:55:59;;;;;;;43.67;34.47;;;15.30;99.90;;;;;;5016250;28;20026;-79
2021/09/14 01:58:25;;;;;;;43.95;34.60;;;15.20;99.90;;;;;;5014925;28;20017;-79
2021/09/14 02:01:02;;;;;;;40.50;34.42;;;15.20;99.90;;;;;;5016144;28;20028;-79
2021/09/14 02:33:51;;;;;;;44.65;35.92;;;15.20;99.90;;;;;;5029128;28;20029;-79
2021/09/14 02:41:44;;;;;;;44.70;36.47;;;15.00;99.90;;;;;;5020510;28;20044;-79
2021/09/14 02:44:27;;;;;;;47.13;36.45;;;15.00;99.90;;;;;;5019130;28;20108;-79
2021/09/14 03:00:38;;;;;;;47.78;38.85;;;15.00;99.90;;;;;;5020764;28;20076;-78
2021/09/14 03:03:04;;;;;;;47.10;37.30;;;15.10;99.90;;;;;;5018834;28;20089;-79
2021/09/14 03:05:31;;;;;;;44.67;36.78;;;15.00;99.90;;;;;;5019050;28;20085;-79
2021/09/14 03:07:57;;;;;;;48.47;38.00;;;14.90;99.90;;;;;;5017730;28;20037;-79
2021/09/14 03:10:22;;;;;;;50.03;38.20;;;14.90;99.90;;;;;;5018663;28;20386;-79
2021/09/14 03:12:48;;;;;;;56.63;40.55;;;14.90;99.90;;;;;;5016705;28;20022;-79
2021/09/14 03:15:14;;;;;;;46.72;38.75;;;15.00;99.90;;;;;;5017062;28;20483;-79
2021/09/14 03:17:39;;;;;;;46.08;36.63;;;14.90;99.90;;;;;;5016995;28;20022;-79
2021/09/14 03:20:06;;;;;;;48.78;36.67;;;14.90;99.90;;;;;;5017391;28;20025;-79
2021/09/14 03:22:31;;;;;;;47.90;39.10;;;14.90;99.90;;;;;;5017286;28;20018;-79
2021/09/14 03:24:57;;;;;;;46.85;35.53;;;14.90;99.90;;;;;;5020882;28;20057;-79
2021/09/14 03:27:23;;;;;;;45.78;37.17;;;14.80;99.90;;;;;;5021476;28;20021;-79
2021/09/14 03:29:48;;;;;;;48.17;38.42;;;15.00;99.90;;;;;;5022237;28;20068;-79
2021/09/14 03:32:14;;;;;;;45.80;37.15;;;14.90;99.90;;;;;;5020208;28;20018;-79
2021/09/14 03:34:40;;;;;;;48.42;37.80;;;15.00;99.90;;;;;;5020248;28;20025;-79
2021/09/14 03:37:05;;;;;;;49.63;39.08;;;15.10;99.90;;;;;;5021676;28;20049;-79
2021/09/14 03:39:31;;;;;;;44.95;37.45;;;15.00;99.90;;;;;;5019049;28;20076;-80
2021/09/14 03:41:57;;;;;;;50.63;37.60;;;14.90;99.90;;;;;;5017544;28;20022;-79
2021/09/14 03:44:22;;;;;;;48.70;37.47;;;14.90;99.90;;;;;;5017219;28;20479;-79
2021/09/14 03:46:48;;;;;;;49.22;39.22;;;14.90;99.90;;;;;;5017664;28;20026;-79
2021/09/14 03:49:14;;;;;;;49.88;38.63;;;14.90;99.90;;;;;;5017418;28;20075;-79
2021/09/14 03:51:39;;;;;;;49.13;38.92;;;15.10;99.90;;;;;;5018901;28;20022;-79
2021/09/14 03:54:05;;;;;;;50.33;39.53;;;15.10;99.90;;;;;;5017777;28;20046;-79
2021/09/14 03:56:31;;;;;;;52.45;39.33;;;15.10;99.90;;;;;;5016623;28;20029;-79
2021/09/14 03:58:56;;;;;;;57.17;41.15;;;15.10;99.90;;;;;;5018351;28;20029;-79
2021/09/14 04:01:22;;;;;;;54.58;42.10;;;15.10;99.90;;;;;;5017459;28;20144;-79
2021/09/14 04:03:56;;;;;;;49.75;39.67;;;15.10;99.90;;;;;;5016016;28;20112;-79
2021/09/14 04:11:16;;;;;;;47.17;37.58;;;14.80;99.90;;;;;;5017750;28;20125;-79
2021/09/14 04:13:42;;;;;;;48.20;38.45;;;14.80;99.90;;;;;;5016264;28;20026;-80
2021/09/14 04:16:08;;;;;;;50.63;38.42;;;14.80;99.90;;;;;;5016148;28;20048;-79
2021/09/14 04:18:33;;;;;;;50.78;39.65;;;14.90;99.90;;;;;;5015825;28;20428;-79
2021/09/14 04:20:59;;;;;;;49.90;38.28;;;15.00;99.90;;;;;;5017365;28;20109;-79
2021/09/14 04:23:25;;;;;;;51.53;37.70;;;14.90;99.90;;;;;;5016156;28;20113;-79
2021/09/14 04:25:50;;;;;;;48.53;38.10;;;14.90;99.90;;;;;;5015905;28;20100;-79
2021/09/14 04:28:16;;;;;;;49.17;39.63;;;14.80;99.90;;;;;;5016302;28;20041;-79
2021/09/14 04:30:42;;;;;;;46.53;38.85;;;14.70;99.90;;;;;;5016175;28;20124;-79
2021/09/14 04:33:08;;;;;;;56.80;40.97;;;14.90;99.90;;;;;;5016638;28;20126;-79
2021/09/14 04:35:35;;;;;;;50.95;39.90;;;15.00;99.90;;;;;;5015870;28;20030;-79
2021/09/14 04:38:00;;;;;;;51.83;40.25;;;14.90;99.90;;;;;;5016051;28;20487;-79
2021/09/14 04:40:26;;;;;;;49.50;40.00;;;14.80;99.90;;;;;;5016667;28;20052;-79
2021/09/14 04:42:51;;;;;;;52.25;40.53;;;14.80;99.90;;;;;;5016271;28;20049;-79
2021/09/14 04:45:17;;;;;;;53.88;41.47;;;14.80;99.90;;;;;;5015928;28;20034;-79
2021/09/14 04:47:43;;;;;;;57.20;43.10;;;14.80;99.90;;;;;;5016930;28;20060;-79
2021/09/14 04:50:09;;;;;;;57.13;40.88;;;14.80;99.90;;;;;;5015296;28;20061;-79
2021/09/14 04:52:35;;;;;;;61.60;42.55;;;14.80;99.90;;;;;;5014995;28;20407;-79
2021/09/14 04:55:00;;;;;;;58.00;43.92;;;14.80;99.90;;;;;;5016894;28;20037;-79
2021/09/14 04:57:26;;;;;;;65.18;47.22;;;14.90;99.90;;;;;;5017215;28;20029;-79
2021/09/14 04:59:52;;;;;;;60.47;45.95;;;15.00;99.90;;;;;;5015784;28;20457;-79
2021/09/14 05:02:17;;;;;;;65.10;45.15;;;15.00;99.90;;;;;;5015252;28;20029;-79
2021/09/14 05:04:43;;;;;;;61.50;44.53;;;14.90;99.90;;;;;;4999261;28;20093;-79
2021/09/14 05:07:09;;;;;;;55.55;42.58;;;14.70;99.90;;;;;;5015273;28;20084;-79
2021/09/14 05:09:34;;;;;;;61.58;45.72;;;14.60;99.90;;;;;;5015670;28;20507;-79
2021/09/14 05:12:00;;;;;;;64.38;47.67;;;14.80;99.90;;;;;;5015989;28;20026;-78
2021/09/14 05:14:27;;;;;;;68.13;48.55;;;14.90;99.90;;;;;;5016133;28;20041;-79
2021/09/14 05:16:52;;;;;;;63.35;46.17;;;15.00;99.90;;;;;;5016850;28;20033;-78
2021/09/14 05:19:29;;;;;;;68.55;46.00;;;14.90;99.90;;;;;;5016736;28;20760;-78
2021/09/14 05:21:55;;;;;;;58.60;44.50;;;14.80;99.90;;;;;;5019303;28;20029;-80
2021/09/14 05:24:21;;;;;;;59.45;45.13;;;14.70;99.90;;;;;;5018514;28;20022;-79
2021/09/14 05:26:46;;;;;;;55.53;42.35;;;14.70;99.90;;;;;;5017584;28;20034;-79
2021/09/14 05:29:12;;;;;;;56.85;43.22;;;14.60;99.90;;;;;;5016367;28;20033;-79
2021/09/14 05:31:37;;;;;;;51.47;40.17;;;14.50;99.90;;;;;;5017661;28;20037;-79
2021/09/14 05:34:03;;;;;;;56.22;40.67;;;14.50;99.90;;;;;;5015171;28;20026;-78
2021/09/14 05:36:30;;;;;;;49.20;39.30;;;14.50;99.90;;;;;;5014842;28;20390;-78
2021/09/14 05:38:55;;;;;;;53.03;39.95;;;14.50;99.90;;;;;;5011901;28;20128;-78
2021/09/14 05:41:21;;;;;;;56.88;39.25;;;14.50;99.90;;;;;;5012814;28;20022;-78
2021/09/14 05:43:47;;;;;;;50.60;39.90;;;14.60;99.90;;;;;;5020537;28;20029;-79
2021/09/14 05:46:12;;;;;;;53.47;39.95;;;14.70;99.90;;;;;;5011311;28;20038;-78
2021/09/14 05:48:38;;;;;;;55.05;38.88;;;14.80;99.90;;;;;;5012219;28;20035;-78
2021/09/14 05:51:03;;;;;;;55.00;39.00;;;14.80;99.90;;;;;;5010233;28;20056;-78
2021/09/14 05:53:29;;;;;;;50.13;39.00;;;14.90;99.90;;;;;;5016429;28;20097;-78
2021/09/14 05:55:55;;;;;;;48.08;39.05;;;14.90;99.90;;;;;;5015958;28;20029;-79
2021/09/14 05:58:20;;;;;;;53.80;40.47;;;15.10;99.90;;;;;;5010318;28;20114;-79
2021/09/14 06:00:46;;;;;;;54.40;40.70;;;15.30;99.90;;;;;;5011080;28;20026;-80
2021/09/14 06:03:12;;;;;;;54.70;40.10;;;15.60;99.90;;;;;;4999698;28;20022;-79
2021/09/14 06:05:40;;;;;;;51.20;40.92;;;15.60;99.90;;;;;;5004384;28;20272;-81
2021/09/14 06:08:06;;;;;;;51.45;38.80;;;15.70;99.90;;;;;;4984293;28;20031;-80
2021/09/14 06:10:32;;;;;;;48.33;38.50;;;15.70;99.90;;;;;;5012110;28;20076;-80
2021/09/14 06:12:58;;;;;;;51.90;38.53;;;15.70;99.90;;;;;;5015211;28;20036;-80
2021/09/14 06:15:23;;;;;;;45.58;38.25;;;15.70;99.90;;;;;;5008275;28;20029;-77
2021/09/14 06:17:49;;;;;;;54.97;38.08;;;15.80;99.90;;;;;;5005103;28;20119;-79
2021/09/14 06:20:15;;;;;;;55.80;39.38;;;15.80;99.90;;;;;;5002395;28;20032;-83
2021/09/14 06:22:40;;;;;;;51.67;38.13;;;16.00;99.90;;;;;;5014151;28;20030;-84
2021/09/14 06:25:06;;;;;;;50.53;36.13;;;16.10;99.90;;;;;;5016267;28;20038;-90
2021/09/14 06:27:32;;;;;;;45.22;36.30;;;16.10;99.90;;;;;;5014688;28;20023;-85
2021/09/14 06:29:58;;;;;;;43.45;34.28;;;16.00;99.90;;;;;;5009756;28;20048;-83
2021/09/14 06:32:25;;;;;;;44.13;34.97;;;16.10;99.90;;;;;;4999197;28;20638;-86
2021/09/14 06:34:50;;;;;;;41.67;32.42;;;16.00;99.90;;;;;;5004565;28;20022;-80
2021/09/14 06:37:16;;;;;;;43.83;33.78;;;16.10;99.90;;;;;;5026199;28;21041;-79
2021/09/14 06:39:42;;;;;;;45.22;35.03;;;16.10;99.90;;;;;;5009594;28;20092;-79
2021/09/14 06:42:07;;;;;;;45.65;35.50;;;16.20;99.90;;;;;;5010820;28;20071;-79
2021/09/14 06:44:33;;;;;;;47.90;35.58;;;16.30;99.90;;;;;;5008021;28;20017;-82
2021/09/14 06:47:00;;;;;;;46.90;36.28;;;16.40;99.90;;;;;;5003548;28;20442;-80
2021/09/14 06:49:29;;;;;;;49.22;37.75;;;16.50;99.90;;;;;;5007111;28;20098;-79
2021/09/14 06:51:56;;;;;;;49.60;35.90;;;16.60;99.90;;;;;;5001708;28;20169;-79
2021/09/14 06:54:22;;;;;;;44.03;35.65;;;16.60;99.90;;;;;;4998310;28;20085;-79
2021/09/14 06:56:47;;;;;;;46.15;33.97;;;16.60;99.90;;;;;;5014219;28;20502;-79
2021/09/14 06:59:13;;;;;;;43.63;33.80;;;16.50;99.90;;;;;;5012534;28;20029;-79
2021/09/14 07:01:39;;;;;;;43.38;32.75;;;16.50;99.90;;;;;;5013752;28;20021;-80
2021/09/14 07:04:04;;;;;;;41.25;32.95;;;16.70;99.90;;;;;;5014344;28;20543;-79
2021/09/14 07:06:30;;;;;;;40.40;31.80;;;16.90;99.90;;;;;;5006341;28;20088;-79
2021/09/14 07:08:56;;;;;;;38.03;30.77;;;17.00;99.90;;;;;;5002499;28;20124;-79
2021/09/14 07:11:21;;;;;;;41.28;32.50;;;17.20;99.90;;;;;;5010224;28;20061;-79
2021/09/14 07:13:47;;;;;;;39.80;32.53;;;17.40;99.90;;;;;;5008497;28;20050;-80
2021/09/14 07:16:14;;;;;;;41.17;32.17;;;17.60;99.90;;;;;;5015848;28;20648;-80
2021/09/14 07:18:41;;;;;;;41.95;32.88;;;17.50;99.90;;;;;;5008274;28;20026;-80
2021/09/14 07:21:07;;;;;;;40.53;31.23;;;17.50;99.90;;;;;;5006300;28;20022;-79
2021/09/14 07:23:32;;;;;;;38.50;29.58;;;17.50;99.90;;;;;;5009940;28;20029;-79
2021/09/14 07:25:58;;;;;;;35.92;29.65;;;17.70;99.90;;;;;;5010095;28;20034;-79
2021/09/14 07:28:24;;;;;;;37.67;28.30;;;17.90;99.90;;;;;;4997319;28;20030;-79
2021/09/14 07:30:50;;;;;;;36.58;29.13;;;18.00;99.90;;;;;;5004770;28;20033;-78
2021/09/14 07:33:16;;;;;;;35.15;28.15;;;18.30;99.90;;;;;;5016053;28;20064;-78
2021/09/14 07:35:42;;;;;;;33.50;27.33;;;18.40;99.90;;;;;;5003631;28;20281;-78
2021/09/14 07:38:10;;;;;;;36.00;27.70;;;18.50;99.90;;;;;;5009895;28;20505;-78
2021/09/14 07:40:36;;;;;;;30.83;27.20;;;18.60;99.90;;;;;;4999496;28;20083;-78
2021/09/14 07:43:03;;;;;;;35.92;28.27;;;18.80;99.90;;;;;;5016551;28;20018;-78
2021/09/14 07:45:29;;;;;;;41.88;29.50;;;18.70;99.90;;;;;;5004432;28;20062;-78
2021/09/14 07:47:54;;;;;;;40.45;28.58;;;18.80;99.90;;;;;;5005416;28;20129;-77
2021/09/14 07:50:21;;;;;;;39.55;28.60;;;18.80;99.90;;;;;;4999874;28;20037;-78
2021/09/14 07:52:47;;;;;;;36.90;28.17;;;18.90;99.90;;;;;;5007552;28;20470;-78
2021/09/14 07:55:13;;;;;;;37.15;28.33;;;19.00;99.90;;;;;;5005465;28;20033;-77
2021/09/14 07:57:39;;;;;;;35.40;28.23;;;19.00;99.90;;;;;;5005721;28;20050;-79
2021/09/14 08:00:05;;;;;;;30.05;26.73;;;18.90;99.90;;;;;;5007986;28;20061;-78
2021/09/14 08:02:31;;;;;;;32.35;26.02;;;18.90;99.90;;;;;;5007912;28;20022;-78
2021/09/14 08:04:56;;;;;;;38.47;25.90;;;18.90;99.90;;;;;;5002223;28;20029;-79
2021/09/14 08:07:22;;;;;;;28.55;25.05;;;18.90;99.90;;;;;;5000135;28;20049;-78
2021/09/14 08:09:47;;;;;;;29.10;24.88;;;19.20;99.90;;;;;;5003328;28;20051;-78
2021/09/14 08:12:13;;;;;;;32.67;24.23;;;19.30;99.90;;;;;;5010040;28;20054;-83
2021/09/14 08:14:39;;;;;;;34.75;24.50;;;19.50;99.90;;;;;;5012915;28;20126;-82
2021/09/14 08:17:04;;;;;;;33.90;23.90;;;19.90;99.90;;;;;;5009344;28;20042;-80
2021/09/14 08:19:30;;;;;;;30.02;23.30;;;20.20;99.90;;;;;;5005019;28;20029;-79
2021/09/14 08:21:58;;;;;;;28.45;21.98;;;20.10;99.90;;;;;;5002551;28;20071;-78
2021/09/14 08:24:24;;;;;;;31.13;21.83;;;20.30;99.90;;;;;;5008191;28;20025;-79
2021/09/14 08:26:50;;;;;;;25.33;22.08;;;20.60;99.90;;;;;;4997677;28;20098;-85
2021/09/14 08:29:17;;;;;;;28.70;22.70;;;20.40;99.90;;;;;;5003472;28;20042;-85
2021/09/14 08:31:42;;;;;;;24.83;21.65;;;20.60;99.90;;;;;;5019376;28;20040;-79
2021/09/14 08:34:09;;;;;;;25.33;20.08;;;20.90;99.90;;;;;;5004570;28;20026;-78
2021/09/14 08:36:35;;;;;;;26.88;18.83;;;21.00;99.90;;;;;;4987399;28;20093;-79
2021/09/14 08:39:01;;;;;;;20.63;17.90;;;21.50;99.90;;;;;;4996842;28;20072;-78
2021/09/14 08:41:27;;;;;;;22.35;17.70;;;22.20;99.90;;;;;;5003581;28;20072;-78
2021/09/14 08:43:53;;;;;;;30.88;17.83;;;22.90;99.90;;;;;;5006950;28;20441;-78
2021/09/14 08:46:21;;;;;;;21.58;17.45;;;22.70;99.90;;;;;;4998447;28;20034;-78
2021/09/14 08:48:48;;;;;;;19.85;17.33;;;22.30;99.90;;;;;;5007118;28;20041;-79
2021/09/14 08:51:15;;;;;;;21.27;18.90;;;21.90;99.90;;;;;;5010126;28;20029;-79
2021/09/14 08:53:41;;;;;;;20.50;18.30;;;21.50;99.90;;;;;;5002514;28;20743;-79
2021/09/14 08:56:08;;;;;;;25.85;18.25;;;21.70;99.90;;;;;;4994137;28;20065;-78
2021/09/14 08:58:34;;;;;;;19.33;17.13;;;22.00;99.90;;;;;;4997792;28;20058;-79
2021/09/14 09:01:00;;;;;;;23.25;18.10;;;21.90;99.90;;;;;;4999723;28;20471;-79
2021/09/14 09:03:29;;;;;;;23.40;17.85;;;21.40;99.90;;;;;;4997351;28;20065;-79
2021/09/14 09:05:56;;;;;;;24.15;18.48;;;21.30;99.90;;;;;;4984295;28;20252;-79
2021/09/14 09:08:24;;;;;;;25.27;18.17;;;21.00;99.90;;;;;;5002320;28;20040;-80
2021/09/14 09:11:11;;;;;;;24.30;18.95;;;20.70;99.90;;;;;;5007097;28;20030;-79
2021/09/14 09:13:43;;;;;;;24.63;18.25;;;20.80;99.90;;;;;;5024092;28;20034;-79
2021/09/14 09:16:24;;;;;;;23.15;18.88;;;21.00;99.90;;;;;;4999526;28;20398;-79
2021/09/14 09:18:56;;;;;;;22.13;17.50;;;21.20;99.90;;;;;;5009231;28;20022;-79
2021/09/14 09:21:33;;;;;;;24.67;16.67;;;21.40;99.90;;;;;;5026629;28;20249;-79
2021/09/14 09:24:03;;;;;;;20.10;15.80;;;21.60;99.90;;;;;;5007036;28;21013;-78
2021/09/14 09:26:30;;;;;;;19.10;16.00;;;21.50;99.90;;;;;;4998383;28;20033;-79
2021/09/14 09:28:58;;;;;;;19.10;15.93;;;21.30;99.90;;;;;;5009332;28;20033;-80
2021/09/14 09:31:24;;;;;;;20.02;16.63;;;21.10;99.90;;;;;;5009817;28;20487;-79
2021/09/14 09:34:09;;;;;;;18.23;15.02;;;21.00;99.90;;;;;;5007861;28;20146;-78
2021/09/14 09:36:41;;;;;;;27.73;15.85;;;21.00;99.90;;;;;;4997262;28;20479;-78
2021/09/14 09:39:12;;;;;;;20.15;15.15;;;20.90;99.90;;;;;;5003814;28;20026;-78
2021/09/14 09:41:53;;;;;;;16.02;14.40;;;20.90;99.90;;;;;;5004478;28;20034;-78
2021/09/14 09:44:20;;;;;;;16.45;14.18;;;20.80;99.90;;;;;;5003190;28;20038;-77
2021/09/14 09:46:54;;;;;;;17.55;13.70;;;20.70;99.90;;;;;;4995365;28;20030;-77
2021/09/14 09:49:25;;;;;;;15.13;12.90;;;20.80;99.90;;;;;;4999646;28;20558;-77
2021/09/14 09:51:52;;;;;;;17.80;12.65;;;20.80;99.90;;;;;;5002341;28;20029;-79
2021/09/14 09:54:18;;;;;;;15.43;13.20;;;20.80;99.90;;;;;;5001254;28;20489;-78
2021/09/14 09:56:45;;;;;;;14.00;12.50;;;20.70;99.90;;;;;;5005686;28;20030;-78
2021/09/14 09:59:14;;;;;;;16.83;12.82;;;20.70;99.90;;;;;;5003183;28;20483;-78
2021/09/14 10:02:32;;;;;;;16.75;12.40;;;20.70;99.90;;;;;;5008826;28;20028;-77
2021/09/14 10:05:05;;;;;;;18.13;12.57;;;20.80;99.90;;;;;;4941580;28;20034;-79
2021/09/14 10:07:32;;;;;;;18.50;12.55;;;20.80;99.90;;;;;;4991260;28;20037;-80
2021/09/14 10:10:00;;;;;;;15.27;12.15;;;21.00;99.90;;;;;;5008804;28;20588;-80
2021/09/14 10:12:29;;;;;;;15.68;12.35;;;21.10;99.90;;;;;;5006059;28;20497;-79
2021/09/14 10:15:13;;;;;;;16.60;12.40;;;21.10;99.90;;;;;;5002979;28;20503;-78
2021/09/14 10:17:51;;;;;;;16.35;12.85;;;21.30;99.90;;;;;;5002913;28;20364;-78
2021/09/14 10:20:22;;;;;;;14.65;12.18;;;21.10;99.90;;;;;;5009525;28;20030;-80
2021/09/14 10:23:34;;;;;;;16.77;12.38;;;21.10;99.90;;;;;;5006857;28;20026;-79
2021/09/14 10:26:04;;;;;;;19.73;12.90;;;21.40;99.90;;;;;;5003594;28;20033;-81
2021/09/14 10:28:47;;;;;;;16.55;12.05;;;21.70;99.90;;;;;;4992911;28;20063;-84
2021/09/14 10:31:26;;;;;;;15.35;12.48;;;21.80;99.90;;;;;;5015401;28;20046;-83
2021/09/14 10:34:06;;;;;;;18.48;13.35;;;21.70;99.90;;;;;;5012335;28;20033;-83
2021/09/14 10:36:33;;;;;;;18.50;13.10;;;21.70;99.90;;;;;;5015123;28;20559;-80
2021/09/14 10:38:59;;;;;;;16.35;12.68;;;21.60;99.90;;;;;;5037522;28;20029;-83
2021/09/14 10:41:41;;;;;;;19.50;12.90;;;21.50;99.90;;;;;;5017525;28;20082;-85
2021/09/14 10:44:09;;;;;;;29.48;13.10;;;21.40;99.90;;;;;;5011902;28;20014;-82
2021/09/14 10:46:36;;;;;;;16.58;12.35;;;21.30;99.90;;;;;;5017537;28;20045;-80
2021/09/14 10:49:13;;;;;;;17.52;12.65;;;21.30;99.90;;;;;;5015468;28;20026;-80
2021/09/14 10:51:39;;;;;;;15.88;11.95;;;21.70;99.90;;;;;;5013247;28;20049;-85
2021/09/14 10:54:05;;;;;;;18.90;11.70;;;21.70;99.90;;;;;;5016097;28;20052;-83
2021/09/14 10:56:31;;;;;;;16.80;11.40;;;21.80;99.90;;;;;;5014937;28;20536;-84
2021/09/14 10:58:57;;;;;;;16.25;11.27;;;21.80;99.90;;;;;;5015702;28;20105;-81
2021/09/14 11:01:24;;;;;;;16.10;11.13;;;21.80;99.90;;;;;;5019377;28;20022;-78
2021/09/14 11:04:00;;;;;;;15.80;10.85;;;21.90;99.90;;;;;;5012633;28;20028;-79
2021/09/14 11:06:27;;;;;;;14.30;11.57;;;21.90;99.90;;;;;;5021024;28;20022;-86
2021/09/14 11:09:00;;;;;;;15.02;10.35;;;21.90;99.90;;;;;;5012516;28;20034;-86
2021/09/14 11:11:26;;;;;;;17.63;11.10;;;22.10;99.90;;;;;;5007652;28;20048;-79
2021/09/14 11:13:53;;;;;;;16.40;10.70;;;22.20;99.90;;;;;;4999065;28;20087;-78
2021/09/14 11:16:19;;;;;;;13.85;10.50;;;22.00;99.90;;;;;;4989519;28;20062;-79
2021/09/14 11:18:45;;;;;;;12.40;9.57;;;21.80;99.90;;;;;;5002898;28;20113;-78
2021/09/14 11:21:13;;;;;;;11.32;9.52;;;21.70;99.90;;;;;;5004233;28;20133;-78
2021/09/14 11:23:42;;;;;;;15.30;9.63;;;21.60;99.90;;;;;;5008957;28;20034;-79
2021/09/14 11:26:10;;;;;;;14.73;9.48;;;21.60;99.90;;;;;;5004369;28;20042;-78
2021/09/14 11:28:38;;;;;;;15.68;9.45;;;21.30;99.90;;;;;;5015639;28;20029;-78
2021/09/14 11:31:13;;;;;;;12.35;9.20;;;21.30;99.90;;;;;;5004770;28;20117;-78
2021/09/14 11:33:43;;;;;;;13.15;8.85;;;21.50;99.90;;;;;;4995751;28;20541;-79
2021/09/14 11:36:09;;;;;;;12.18;8.57;;;21.60;99.90;;;;;;5024311;28;20037;-79
2021/09/14 11:38:35;;;;;;;11.15;8.77;;;21.70;99.90;;;;;;4991824;28;20030;-77
2021/09/14 11:41:07;;;;;;;12.40;8.32;;;21.60;99.90;;;;;;4998580;28;20117;-78
2021/09/14 11:43:37;;;;;;;8.88;7.72;;;21.50;99.90;;;;;;4996253;28;20026;-78
2021/09/14 11:46:22;;;;;;;12.25;8.05;;;21.40;99.90;;;;;;5029610;28;20157;-78
2021/09/14 11:48:55;;;;;;;10.07;7.82;;;21.40;99.90;;;;;;5007445;28;20026;-78
2021/09/14 11:51:22;;;;;;;12.23;7.50;;;21.40;99.90;;;;;;5005546;28;20026;-78
2021/09/14 11:53:50;;;;;;;9.30;7.20;;;21.30;99.90;;;;;;5002345;28;20514;-78
2021/09/14 11:56:18;;;;;;;10.27;7.85;;;21.30;99.90;;;;;;5008809;28;20458;-79
2021/09/14 11:58:48;;;;;;;10.85;7.43;;;21.40;99.90;;;;;;5008119;28;20184;-81
2021/09/14 12:01:16;;;;;;;9.77;7.40;;;21.60;99.90;;;;;;5002536;28;20030;-81
2021/09/14 12:03:51;;;;;;;9.80;7.57;;;21.80;99.90;;;;;;5000552;28;20030;-80
2021/09/14 12:06:24;;;;;;;9.32;6.85;;;22.10;99.90;;;;;;5012610;28;20026;-85
2021/09/14 12:08:51;;;;;;;7.25;6.53;;;22.70;99.90;;;;;;4988054;28;20038;-82
2021/09/14 12:11:43;;;;;;;11.35;6.85;;;23.40;99.90;;;;;;5007120;28;20165;-83
2021/09/14 12:14:18;;;;;;;9.13;6.88;;;24.40;99.90;;;;;;5007223;28;20121;-88
2021/09/14 12:16:45;;;;;;;17.15;7.00;;;24.50;99.90;;;;;;4997145;28;20161;-77
2021/09/14 12:19:13;;;;;;;6.53;5.82;;;24.50;99.90;;;;;;5014239;28;20034;-79
2021/09/14 12:21:39;;;;;;;7.57;5.78;;;24.40;99.90;;;;;;5005451;28;20045;-79
2021/09/14 12:24:05;;;;;;;10.13;6.10;;;25.40;99.90;;;;;;4998743;28;20026;-78
2021/09/14 12:26:39;;;;;;;7.97;6.10;;;25.10;99.90;;;;;;5000731;28;20025;-78
2021/09/14 12:29:07;;;;;;;8.13;5.72;;;24.90;99.90;;;;;;5003959;28;20576;-79
2021/09/14 12:31:33;;;;;;;6.45;5.07;;;24.50;99.90;;;;;;4997434;28;20033;-77
2021/09/14 12:33:59;;;;;;;7.43;5.22;;;23.90;99.90;;;;;;5004150;28;20481;-78
2021/09/14 12:36:25;;;;;;;5.10;4.45;;;24.10;99.90;;;;;;4991535;28;20091;-78
2021/09/14 12:38:57;;;;;;;5.97;4.63;;;25.00;99.90;;;;;;5004186;28;20030;-79
2021/09/14 12:41:23;;;;;;;6.53;4.97;;;26.20;99.90;;;;;;5005879;28;20030;-78
2021/09/14 12:43:50;;;;;;;7.05;5.63;;;26.70;99.90;;;;;;5011261;28;20084;-78
2021/09/14 12:46:17;;;;;;;6.57;5.55;;;25.90;99.90;;;;;;5014337;28;20401;-79
2021/09/14 12:48:43;;;;;;;9.10;5.97;;;24.90;99.90;;;;;;5012592;28;20022;-78
2021/09/14 12:51:09;;;;;;;8.57;6.00;;;24.20;99.90;;;;;;5009265;28;20658;-78
2021/09/14 12:53:35;;;;;;;9.82;6.57;;;23.50;99.90;;;;;;5016382;28;20042;-78
2021/09/14 12:56:00;;;;;;;11.45;6.80;;;23.20;99.90;;;;;;5005001;28;20486;-78
2021/09/14 12:58:26;;;;;;;9.95;6.90;;;23.00;99.90;;;;;;5000495;28;20102;-78
2021/09/14 13:00:52;;;;;;;10.30;6.75;;;23.20;99.90;;;;;;5008868;28;20077;-82
2021/09/14 13:03:21;;;;;;;9.93;6.70;;;23.40;99.90;;;;;;5010805;28;20040;-85
2021/09/14 13:05:46;;;;;;;7.97;6.72;;;23.50;99.90;;;;;;5013943;28;20032;-82
2021/09/14 13:08:12;;;;;;;14.57;6.50;;;23.70;99.90;;;;;;5014240;28;20113;-82
2021/09/14 13:10:37;;;;;;;9.55;5.55;;;24.10;99.90;;;;;;5008663;28;20040;-82
2021/09/14 13:16:12;;;;;;;8.57;6.50;;;25.80;99.90;;;;;;4985630;28;20045;-81
2021/09/14 13:18:43;;;;;;;10.77;7.47;;;26.50;99.90;;;;;;5002962;28;20271;-79
2021/09/14 13:21:10;;;;;;;9.65;6.57;;;26.00;99.90;;;;;;5006131;28;20104;-78
2021/09/14 13:23:36;;;;;;;10.35;7.50;;;25.80;99.90;;;;;;4988701;28;20479;-78
2021/09/14 13:26:03;;;;;;;11.10;8.20;;;25.10;99.90;;;;;;4970923;28;20029;-79
2021/09/14 13:28:28;;;;;;;10.68;7.70;;;24.90;99.90;;;;;;4976995;28;20038;-81
2021/09/14 13:30:54;;;;;;;11.07;7.90;;;25.10;99.90;;;;;;5010295;28;20032;-81